Terminal Aerodrome Forecast
Issued by NWS North Platte, NE

Home | Current Version | Previous Version | Text Only | Print | Product List | Glossary Off
Versions: 1 2 3 4 5 6 7 8 9 10 11 12 13 14 15 16 17 18 19 20 21 22 23 24 25 26

000
FTUS43 KLBF 260553 AAA
TAFVTN
TAF AMD
KVTN 260553Z 2606/2706 VRB03KT P6SM OVC015
     FM261000 29004KT P6SM BKN015 BKN025
     FM261300 29004KT P6SM SCT250
     FM262100 05004KT P6SM SCT070
     FM270200 11004KT P6SM SKC=

USA.gov is the U.S. government's official web portal to all federal, state and local government web resources and services.